sensor_id;sensor_type;location;lat;lon;timestamp;P1;durP1;ratioP1;P2;durP2;ratioP2
71626;SDS011;59475;52.464;13.590;2023-04-25T00:00:28;4.07;;;3.30;;
71626;SDS011;59475;52.464;13.590;2023-04-25T00:02:53;4.37;;;3.57;;
71626;SDS011;59475;52.464;13.590;2023-04-25T00:05:20;5.60;;;3.03;;
71626;SDS011;59475;52.464;13.590;2023-04-25T00:07:48;6.20;;;3.65;;
71626;SDS011;59475;52.464;13.590;2023-04-25T00:10:14;4.78;;;3.20;;
71626;SDS011;59475;52.464;13.590;2023-04-25T00:12:40;3.60;;;2.93;;
71626;SDS011;59475;52.464;13.590;2023-04-25T00:15:06;4.75;;;2.90;;
71626;SDS011;59475;52.464;13.590;2023-04-25T00:17:32;5.60;;;3.20;;
71626;SDS011;59475;52.464;13.590;2023-04-25T00:19:59;5.15;;;3.35;;
71626;SDS011;59475;52.464;13.590;2023-04-25T00:22:25;2.60;;;2.35;;
71626;SDS011;59475;52.464;13.590;2023-04-25T00:24:51;3.40;;;2.03;;
71626;SDS011;59475;52.464;13.590;2023-04-25T00:27:18;3.97;;;2.30;;
71626;SDS011;59475;52.464;13.590;2023-04-25T00:29:43;3.37;;;2.50;;
71626;SDS011;59475;52.464;13.590;2023-04-25T00:32:08;5.90;;;2.17;;
71626;SDS011;59475;52.464;13.590;2023-04-25T00:34:34;4.05;;;2.50;;
71626;SDS011;59475;52.464;13.590;2023-04-25T00:37:00;3.33;;;2.50;;
71626;SDS011;59475;52.464;13.590;2023-04-25T00:39:27;5.13;;;2.42;;
71626;SDS011;59475;52.464;13.590;2023-04-25T00:41:53;5.77;;;2.20;;
71626;SDS011;59475;52.464;13.590;2023-04-25T00:44:19;6.32;;;2.50;;
71626;SDS011;59475;52.464;13.590;2023-04-25T00:46:46;4.53;;;2.10;;
71626;SDS011;59475;52.464;13.590;2023-04-25T00:49:12;4.97;;;2.22;;
71626;SDS011;59475;52.464;13.590;2023-04-25T00:51:40;4.50;;;2.17;;
71626;SDS011;59475;52.464;13.590;2023-04-25T00:54:06;5.87;;;1.90;;
71626;SDS011;59475;52.464;13.590;2023-04-25T00:56:32;4.05;;;2.17;;
71626;SDS011;59475;52.464;13.590;2023-04-25T00:58:57;5.80;;;2.10;;
71626;SDS011;59475;52.464;13.590;2023-04-25T01:01:23;5.80;;;2.47;;
71626;SDS011;59475;52.464;13.590;2023-04-25T01:03:48;5.23;;;2.60;;
71626;SDS011;59475;52.464;13.590;2023-04-25T01:06:15;5.82;;;2.60;;
71626;SDS011;59475;52.464;13.590;2023-04-25T01:08:41;7.10;;;2.92;;
71626;SDS011;59475;52.464;13.590;2023-04-25T01:11:07;6.33;;;2.80;;
71626;SDS011;59475;52.464;13.590;2023-04-25T01:13:32;5.20;;;2.57;;
71626;SDS011;59475;52.464;13.590;2023-04-25T01:15:59;6.70;;;2.97;;
71626;SDS011;59475;52.464;13.590;2023-04-25T01:18:25;5.50;;;3.00;;
71626;SDS011;59475;52.464;13.590;2023-04-25T01:20:51;5.17;;;2.47;;
71626;SDS011;59475;52.464;13.590;2023-04-25T01:23:18;4.72;;;2.42;;
71626;SDS011;59475;52.464;13.590;2023-04-25T01:25:44;7.07;;;2.63;;
71626;SDS011;59475;52.464;13.590;2023-04-25T01:28:10;5.13;;;2.90;;
71626;SDS011;59475;52.464;13.590;2023-04-25T01:30:36;7.40;;;3.77;;
71626;SDS011;59475;52.464;13.590;2023-04-25T01:33:02;11.20;;;3.22;;
71626;SDS011;59475;52.464;13.590;2023-04-25T01:35:29;6.88;;;2.72;;
71626;SDS011;59475;52.464;13.590;2023-04-25T01:37:55;8.70;;;2.40;;
71626;SDS011;59475;52.464;13.590;2023-04-25T01:40:20;4.57;;;2.73;;
71626;SDS011;59475;52.464;13.590;2023-04-25T01:42:47;8.35;;;2.60;;
71626;SDS011;59475;52.464;13.590;2023-04-25T01:45:13;6.95;;;3.28;;
71626;SDS011;59475;52.464;13.590;2023-04-25T01:47:39;7.50;;;2.50;;
71626;SDS011;59475;52.464;13.590;2023-04-25T01:50:05;4.78;;;2.85;;
71626;SDS011;59475;52.464;13.590;2023-04-25T01:52:32;7.65;;;3.17;;
71626;SDS011;59475;52.464;13.590;2023-04-25T01:54:59;5.20;;;2.60;;
71626;SDS011;59475;52.464;13.590;2023-04-25T01:57:26;4.60;;;2.80;;
71626;SDS011;59475;52.464;13.590;2023-04-25T01:59:52;6.17;;;3.17;;
71626;SDS011;59475;52.464;13.590;2023-04-25T02:02:26;6.78;;;3.08;;
71626;SDS011;59475;52.464;13.590;2023-04-25T02:04:52;7.82;;;2.85;;
71626;SDS011;59475;52.464;13.590;2023-04-25T02:07:17;6.57;;;3.20;;
71626;SDS011;59475;52.464;13.590;2023-04-25T02:09:43;6.40;;;2.90;;
71626;SDS011;59475;52.464;13.590;2023-04-25T02:12:09;4.53;;;2.70;;
71626;SDS011;59475;52.464;13.590;2023-04-25T02:14:35;8.13;;;2.77;;
71626;SDS011;59475;52.464;13.590;2023-04-25T02:17:00;4.63;;;1.88;;
71626;SDS011;59475;52.464;13.590;2023-04-25T02:19:26;4.73;;;2.80;;
71626;SDS011;59475;52.464;13.590;2023-04-25T02:21:51;3.60;;;2.07;;
71626;SDS011;59475;52.464;13.590;2023-04-25T02:24:17;5.40;;;2.50;;
71626;SDS011;59475;52.464;13.590;2023-04-25T02:26:42;3.78;;;2.42;;
71626;SDS011;59475;52.464;13.590;2023-04-25T02:29:08;6.97;;;2.93;;
71626;SDS011;59475;52.464;13.590;2023-04-25T02:31:34;6.20;;;2.63;;
71626;SDS011;59475;52.464;13.590;2023-04-25T02:34:00;5.30;;;2.93;;
71626;SDS011;59475;52.464;13.590;2023-04-25T02:36:25;7.27;;;2.90;;
71626;SDS011;59475;52.464;13.590;2023-04-25T02:38:51;5.15;;;3.20;;
71626;SDS011;59475;52.464;13.590;2023-04-25T02:41:17;5.03;;;2.67;;
71626;SDS011;59475;52.464;13.590;2023-04-25T02:43:42;5.28;;;2.75;;
71626;SDS011;59475;52.464;13.590;2023-04-25T02:46:08;7.30;;;3.00;;
71626;SDS011;59475;52.464;13.590;2023-04-25T02:48:33;5.10;;;2.87;;
71626;SDS011;59475;52.464;13.590;2023-04-25T02:50:59;7.78;;;3.00;;
71626;SDS011;59475;52.464;13.590;2023-04-25T02:53:24;3.70;;;2.50;;
71626;SDS011;59475;52.464;13.590;2023-04-25T02:55:50;6.60;;;3.30;;
71626;SDS011;59475;52.464;13.590;2023-04-25T02:58:17;4.45;;;2.97;;
71626;SDS011;59475;52.464;13.590;2023-04-25T03:00:42;6.67;;;3.10;;
71626;SDS011;59475;52.464;13.590;2023-04-25T03:03:08;6.00;;;2.90;;
71626;SDS011;59475;52.464;13.590;2023-04-25T03:05:33;7.85;;;3.20;;
71626;SDS011;59475;52.464;13.590;2023-04-25T03:07:59;6.80;;;3.20;;
71626;SDS011;59475;52.464;13.590;2023-04-25T03:10:24;7.03;;;2.93;;
71626;SDS011;59475;52.464;13.590;2023-04-25T03:12:49;8.63;;;3.57;;
71626;SDS011;59475;52.464;13.590;2023-04-25T03:15:15;7.00;;;3.13;;
71626;SDS011;59475;52.464;13.590;2023-04-25T03:17:41;5.57;;;3.20;;
71626;SDS011;59475;52.464;13.590;2023-04-25T03:20:07;6.78;;;3.33;;
71626;SDS011;59475;52.464;13.590;2023-04-25T03:22:33;8.00;;;3.40;;
71626;SDS011;59475;52.464;13.590;2023-04-25T03:24:58;5.63;;;3.43;;
71626;SDS011;59475;52.464;13.590;2023-04-25T03:27:24;5.00;;;3.40;;
71626;SDS011;59475;52.464;13.590;2023-04-25T03:29:49;7.53;;;3.40;;
71626;SDS011;59475;52.464;13.590;2023-04-25T03:32:15;8.20;;;3.22;;
71626;SDS011;59475;52.464;13.590;2023-04-25T03:34:40;6.17;;;3.03;;
71626;SDS011;59475;52.464;13.590;2023-04-25T03:37:06;5.80;;;3.30;;
71626;SDS011;59475;52.464;13.590;2023-04-25T03:39:31;6.60;;;3.75;;
71626;SDS011;59475;52.464;13.590;2023-04-25T03:41:56;8.60;;;3.80;;
71626;SDS011;59475;52.464;13.590;2023-04-25T03:44:22;8.47;;;3.30;;
71626;SDS011;59475;52.464;13.590;2023-04-25T03:46:49;8.35;;;3.80;;
71626;SDS011;59475;52.464;13.590;2023-04-25T03:49:14;7.17;;;3.30;;
71626;SDS011;59475;52.464;13.590;2023-04-25T03:51:40;8.53;;;3.50;;
71626;SDS011;59475;52.464;13.590;2023-04-25T03:54:05;5.93;;;3.40;;
71626;SDS011;59475;52.464;13.590;2023-04-25T03:56:30;11.88;;;4.38;;
71626;SDS011;59475;52.464;13.590;2023-04-25T03:58:56;7.17;;;4.10;;
71626;SDS011;59475;52.464;13.590;2023-04-25T04:01:21;7.20;;;3.97;;
71626;SDS011;59475;52.464;13.590;2023-04-25T04:03:47;5.07;;;3.07;;
71626;SDS011;59475;52.464;13.590;2023-04-25T04:06:12;6.07;;;3.63;;
71626;SDS011;59475;52.464;13.590;2023-04-25T04:08:38;6.15;;;3.30;;
71626;SDS011;59475;52.464;13.590;2023-04-25T04:11:03;5.23;;;3.60;;
71626;SDS011;59475;52.464;13.590;2023-04-25T04:13:29;4.53;;;3.40;;
71626;SDS011;59475;52.464;13.590;2023-04-25T04:15:55;6.90;;;3.60;;
71626;SDS011;59475;52.464;13.590;2023-04-25T04:18:20;9.85;;;3.65;;
71626;SDS011;59475;52.464;13.590;2023-04-25T04:20:46;5.13;;;3.23;;
71626;SDS011;59475;52.464;13.590;2023-04-25T04:23:11;6.67;;;3.60;;
71626;SDS011;59475;52.464;13.590;2023-04-25T04:25:37;9.15;;;3.63;;
71626;SDS011;59475;52.464;13.590;2023-04-25T04:28:02;3.80;;;3.10;;
71626;SDS011;59475;52.464;13.590;2023-04-25T04:30:28;6.47;;;3.47;;
71626;SDS011;59475;52.464;13.590;2023-04-25T04:32:57;7.55;;;3.30;;
71626;SDS011;59475;52.464;13.590;2023-04-25T04:35:23;10.37;;;3.37;;
71626;SDS011;59475;52.464;13.590;2023-04-25T04:37:49;7.88;;;3.75;;
71626;SDS011;59475;52.464;13.590;2023-04-25T04:40:14;6.93;;;4.23;;
71626;SDS011;59475;52.464;13.590;2023-04-25T04:42:41;8.25;;;2.97;;
71626;SDS011;59475;52.464;13.590;2023-04-25T04:45:07;9.38;;;3.95;;
71626;SDS011;59475;52.464;13.590;2023-04-25T04:47:33;8.20;;;3.85;;
71626;SDS011;59475;52.464;13.590;2023-04-25T04:49:59;10.60;;;4.23;;
71626;SDS011;59475;52.464;13.590;2023-04-25T04:52:24;7.63;;;3.78;;
71626;SDS011;59475;52.464;13.590;2023-04-25T04:54:50;6.57;;;3.17;;
71626;SDS011;59475;52.464;13.590;2023-04-25T04:57:15;8.23;;;4.10;;
71626;SDS011;59475;52.464;13.590;2023-04-25T04:59:41;8.60;;;4.07;;
71626;SDS011;59475;52.464;13.590;2023-04-25T05:02:07;8.23;;;3.90;;
71626;SDS011;59475;52.464;13.590;2023-04-25T05:04:32;9.37;;;3.67;;
71626;SDS011;59475;52.464;13.590;2023-04-25T05:06:58;8.25;;;3.90;;
71626;SDS011;59475;52.464;13.590;2023-04-25T05:09:23;6.80;;;3.40;;
71626;SDS011;59475;52.464;13.590;2023-04-25T05:11:50;7.70;;;3.28;;
71626;SDS011;59475;52.464;13.590;2023-04-25T05:14:16;5.17;;;3.90;;
71626;SDS011;59475;52.464;13.590;2023-04-25T05:16:42;6.37;;;3.87;;
71626;SDS011;59475;52.464;13.590;2023-04-25T05:19:08;7.72;;;4.30;;
71626;SDS011;59475;52.464;13.590;2023-04-25T05:21:33;9.27;;;3.77;;
71626;SDS011;59475;52.464;13.590;2023-04-25T05:23:59;8.63;;;4.00;;
71626;SDS011;59475;52.464;13.590;2023-04-25T05:26:25;7.93;;;4.17;;
71626;SDS011;59475;52.464;13.590;2023-04-25T05:28:50;7.75;;;3.95;;
71626;SDS011;59475;52.464;13.590;2023-04-25T05:31:16;7.03;;;3.73;;
71626;SDS011;59475;52.464;13.590;2023-04-25T05:33:41;8.83;;;4.23;;
71626;SDS011;59475;52.464;13.590;2023-04-25T05:36:07;5.87;;;3.67;;
71626;SDS011;59475;52.464;13.590;2023-04-25T05:38:32;10.68;;;4.03;;
71626;SDS011;59475;52.464;13.590;2023-04-25T05:40:58;9.33;;;4.27;;
71626;SDS011;59475;52.464;13.590;2023-04-25T05:43:23;6.67;;;3.73;;
71626;SDS011;59475;52.464;13.590;2023-04-25T05:45:49;7.50;;;3.92;;
71626;SDS011;59475;52.464;13.590;2023-04-25T05:48:14;6.83;;;3.77;;
71626;SDS011;59475;52.464;13.590;2023-04-25T05:50:39;7.40;;;3.90;;
71626;SDS011;59475;52.464;13.590;2023-04-25T05:53:05;10.10;;;4.10;;
71626;SDS011;59475;52.464;13.590;2023-04-25T05:55:30;11.68;;;4.38;;
71626;SDS011;59475;52.464;13.590;2023-04-25T05:57:56;6.77;;;3.90;;
71626;SDS011;59475;52.464;13.590;2023-04-25T06:00:21;7.77;;;3.40;;
71626;SDS011;59475;52.464;13.590;2023-04-25T06:02:47;10.32;;;4.22;;
71626;SDS011;59475;52.464;13.590;2023-04-25T06:05:13;7.13;;;4.00;;
71626;SDS011;59475;52.464;13.590;2023-04-25T06:07:38;17.90;;;4.30;;
71626;SDS011;59475;52.464;13.590;2023-04-25T06:10:03;8.70;;;4.07;;
71626;SDS011;59475;52.464;13.590;2023-04-25T06:12:31;4.50;;;3.10;;
71626;SDS011;59475;52.464;13.590;2023-04-25T06:14:59;6.60;;;3.60;;
71626;SDS011;59475;52.464;13.590;2023-04-25T06:17:25;8.27;;;4.32;;
71626;SDS011;59475;52.464;13.590;2023-04-25T06:19:51;6.73;;;4.30;;
71626;SDS011;59475;52.464;13.590;2023-04-25T06:22:16;6.70;;;3.33;;
71626;SDS011;59475;52.464;13.590;2023-04-25T06:24:41;8.75;;;4.15;;
71626;SDS011;59475;52.464;13.590;2023-04-25T06:27:07;5.97;;;3.80;;
71626;SDS011;59475;52.464;13.590;2023-04-25T06:29:32;6.97;;;4.07;;
71626;SDS011;59475;52.464;13.590;2023-04-25T06:31:57;9.23;;;4.57;;
71626;SDS011;59475;52.464;13.590;2023-04-25T06:34:23;11.23;;;4.30;;
71626;SDS011;59475;52.464;13.590;2023-04-25T06:36:49;9.10;;;4.10;;
71626;SDS011;59475;52.464;13.590;2023-04-25T06:39:14;7.70;;;4.63;;
71626;SDS011;59475;52.464;13.590;2023-04-25T06:41:40;10.52;;;4.13;;
71626;SDS011;59475;52.464;13.590;2023-04-25T06:44:05;8.37;;;4.17;;
71626;SDS011;59475;52.464;13.590;2023-04-25T06:46:31;9.27;;;4.80;;
71626;SDS011;59475;52.464;13.590;2023-04-25T06:48:56;9.93;;;4.40;;
71626;SDS011;59475;52.464;13.590;2023-04-25T06:51:22;9.07;;;3.80;;
71626;SDS011;59475;52.464;13.590;2023-04-25T06:53:49;6.45;;;4.03;;
71626;SDS011;59475;52.464;13.590;2023-04-25T06:56:14;6.47;;;3.73;;
71626;SDS011;59475;52.464;13.590;2023-04-25T06:58:41;8.35;;;4.18;;
71626;SDS011;59475;52.464;13.590;2023-04-25T07:01:06;7.60;;;4.50;;
71626;SDS011;59475;52.464;13.590;2023-04-25T07:03:31;9.93;;;4.93;;
71626;SDS011;59475;52.464;13.590;2023-04-25T07:05:57;8.07;;;3.90;;
71626;SDS011;59475;52.464;13.590;2023-04-25T07:08:22;9.97;;;4.70;;
71626;SDS011;59475;52.464;13.590;2023-04-25T07:10:47;7.32;;;3.53;;
71626;SDS011;59475;52.464;13.590;2023-04-25T07:13:13;5.90;;;3.63;;
71626;SDS011;59475;52.464;13.590;2023-04-25T07:15:38;6.20;;;3.83;;
71626;SDS011;59475;52.464;13.590;2023-04-25T07:18:03;6.33;;;3.83;;
71626;SDS011;59475;52.464;13.590;2023-04-25T07:20:29;8.38;;;4.40;;
71626;SDS011;59475;52.464;13.590;2023-04-25T07:22:56;6.50;;;4.23;;
71626;SDS011;59475;52.464;13.590;2023-04-25T07:25:22;5.20;;;3.50;;
71626;SDS011;59475;52.464;13.590;2023-04-25T07:27:47;7.72;;;3.83;;
71626;SDS011;59475;52.464;13.590;2023-04-25T07:30:13;8.67;;;3.53;;
71626;SDS011;59475;52.464;13.590;2023-04-25T07:32:38;7.10;;;3.43;;
71626;SDS011;59475;52.464;13.590;2023-04-25T07:35:04;6.25;;;3.50;;
71626;SDS011;59475;52.464;13.590;2023-04-25T07:37:31;8.00;;;3.80;;
71626;SDS011;59475;52.464;13.590;2023-04-25T07:39:57;7.10;;;3.23;;
71626;SDS011;59475;52.464;13.590;2023-04-25T07:42:22;7.60;;;3.03;;
71626;SDS011;59475;52.464;13.590;2023-04-25T07:44:48;6.47;;;3.30;;
71626;SDS011;59475;52.464;13.590;2023-04-25T07:47:13;7.28;;;3.30;;
71626;SDS011;59475;52.464;13.590;2023-04-25T07:49:39;6.50;;;3.17;;
71626;SDS011;59475;52.464;13.590;2023-04-25T07:52:05;7.05;;;3.40;;
71626;SDS011;59475;52.464;13.590;2023-04-25T07:54:31;8.33;;;3.70;;
71626;SDS011;59475;52.464;13.590;2023-04-25T07:56:57;5.38;;;3.83;;
71626;SDS011;59475;52.464;13.590;2023-04-25T07:59:23;7.18;;;3.50;;
71626;SDS011;59475;52.464;13.590;2023-04-25T08:01:48;6.70;;;3.33;;
71626;SDS011;59475;52.464;13.590;2023-04-25T08:04:14;8.67;;;3.93;;
71626;SDS011;59475;52.464;13.590;2023-04-25T08:06:39;7.35;;;3.38;;
71626;SDS011;59475;52.464;13.590;2023-04-25T08:09:05;6.90;;;3.70;;
71626;SDS011;59475;52.464;13.590;2023-04-25T08:11:31;9.80;;;3.70;;
71626;SDS011;59475;52.464;13.590;2023-04-25T08:13:57;11.30;;;4.00;;
71626;SDS011;59475;52.464;13.590;2023-04-25T08:16:22;11.03;;;4.20;;
71626;SDS011;59475;52.464;13.590;2023-04-25T08:18:48;9.53;;;3.90;;
71626;SDS011;59475;52.464;13.590;2023-04-25T08:21:13;7.55;;;3.60;;
71626;SDS011;59475;52.464;13.590;2023-04-25T08:23:40;10.07;;;4.57;;
71626;SDS011;59475;52.464;13.590;2023-04-25T08:26:05;10.70;;;4.03;;
71626;SDS011;59475;52.464;13.590;2023-04-25T08:28:31;15.53;;;4.00;;
71626;SDS011;59475;52.464;13.590;2023-04-25T08:30:56;13.97;;;4.33;;
71626;SDS011;59475;52.464;13.590;2023-04-25T08:33:22;11.60;;;4.13;;
71626;SDS011;59475;52.464;13.590;2023-04-25T08:35:47;10.90;;;3.77;;
71626;SDS011;59475;52.464;13.590;2023-04-25T08:38:13;9.60;;;3.53;;
71626;SDS011;59475;52.464;13.590;2023-04-25T08:40:39;11.00;;;3.90;;
71626;SDS011;59475;52.464;13.590;2023-04-25T08:43:06;13.60;;;3.53;;
71626;SDS011;59475;52.464;13.590;2023-04-25T08:45:36;9.05;;;3.33;;
71626;SDS011;59475;52.464;13.590;2023-04-25T08:48:04;9.13;;;3.50;;
71626;SDS011;59475;52.464;13.590;2023-04-25T08:50:32;8.63;;;3.30;;
71626;SDS011;59475;52.464;13.590;2023-04-25T08:52:57;9.73;;;3.35;;
71626;SDS011;59475;52.464;13.590;2023-04-25T08:55:28;9.90;;;3.10;;
71626;SDS011;59475;52.464;13.590;2023-04-25T08:57:54;9.63;;;3.03;;
71626;SDS011;59475;52.464;13.590;2023-04-25T09:00:20;7.22;;;2.30;;
71626;SDS011;59475;52.464;13.590;2023-04-25T09:02:45;6.97;;;2.57;;
71626;SDS011;59475;52.464;13.590;2023-04-25T09:05:14;12.98;;;3.13;;
71626;SDS011;59475;52.464;13.590;2023-04-25T09:07:40;9.23;;;3.03;;
71626;SDS011;59475;52.464;13.590;2023-04-25T09:10:05;11.47;;;3.00;;
71626;SDS011;59475;52.464;13.590;2023-04-25T09:12:31;9.60;;;2.70;;
71626;SDS011;59475;52.464;13.590;2023-04-25T09:17:31;11.52;;;3.13;;
71626;SDS011;59475;52.464;13.590;2023-04-25T09:20:05;7.87;;;2.33;;
71626;SDS011;59475;52.464;13.590;2023-04-25T09:22:40;9.57;;;2.60;;
71626;SDS011;59475;52.464;13.590;2023-04-25T09:25:09;7.67;;;2.43;;
71626;SDS011;59475;52.464;13.590;2023-04-25T09:27:36;10.03;;;2.80;;
71626;SDS011;59475;52.464;13.590;2023-04-25T09:30:15;9.10;;;2.47;;
71626;SDS011;59475;52.464;13.590;2023-04-25T09:32:44;9.73;;;3.10;;
71626;SDS011;59475;52.464;13.590;2023-04-25T09:35:10;12.75;;;2.33;;
71626;SDS011;59475;52.464;13.590;2023-04-25T09:37:36;6.07;;;2.10;;
71626;SDS011;59475;52.464;13.590;2023-04-25T09:40:04;6.57;;;2.20;;
71626;SDS011;59475;52.464;13.590;2023-04-25T09:42:31;6.63;;;2.40;;
71626;SDS011;59475;52.464;13.590;2023-04-25T09:44:59;9.77;;;2.77;;
71626;SDS011;59475;52.464;13.590;2023-04-25T09:47:26;10.57;;;2.92;;
71626;SDS011;59475;52.464;13.590;2023-04-25T09:49:53;7.15;;;1.92;;
71626;SDS011;59475;52.464;13.590;2023-04-25T09:52:20;10.80;;;2.38;;
71626;SDS011;59475;52.464;13.590;2023-04-25T09:54:47;8.15;;;2.20;;
71626;SDS011;59475;52.464;13.590;2023-04-25T09:57:21;10.33;;;2.90;;
71626;SDS011;59475;52.464;13.590;2023-04-25T09:59:48;7.20;;;2.70;;
71626;SDS011;59475;52.464;13.590;2023-04-25T10:02:16;9.38;;;2.90;;
71626;SDS011;59475;52.464;13.590;2023-04-25T10:04:50;10.48;;;2.42;;
71626;SDS011;59475;52.464;13.590;2023-04-25T10:07:18;10.68;;;2.70;;
71626;SDS011;59475;52.464;13.590;2023-04-25T10:09:45;12.50;;;2.27;;
71626;SDS011;59475;52.464;13.590;2023-04-25T10:12:13;6.43;;;2.08;;
71626;SDS011;59475;52.464;13.590;2023-04-25T10:14:39;4.40;;;1.52;;
71626;SDS011;59475;52.464;13.590;2023-04-25T10:17:06;4.05;;;1.90;;
71626;SDS011;59475;52.464;13.590;2023-04-25T10:19:33;8.20;;;2.22;;
71626;SDS011;59475;52.464;13.590;2023-04-25T10:24:43;13.80;;;3.00;;
71626;SDS011;59475;52.464;13.590;2023-04-25T10:27:11;5.43;;;2.28;;
71626;SDS011;59475;52.464;13.590;2023-04-25T10:29:37;7.28;;;2.20;;
71626;SDS011;59475;52.464;13.590;2023-04-25T10:32:03;11.50;;;2.60;;
71626;SDS011;59475;52.464;13.590;2023-04-25T10:34:39;7.32;;;2.38;;
71626;SDS011;59475;52.464;13.590;2023-04-25T10:37:08;9.18;;;2.38;;
71626;SDS011;59475;52.464;13.590;2023-04-25T10:39:35;5.97;;;2.20;;
71626;SDS011;59475;52.464;13.590;2023-04-25T10:42:04;9.38;;;2.22;;
71626;SDS011;59475;52.464;13.590;2023-04-25T10:44:30;9.97;;;2.70;;
71626;SDS011;59475;52.464;13.590;2023-04-25T10:46:56;6.40;;;2.30;;
71626;SDS011;59475;52.464;13.590;2023-04-25T10:49:34;5.10;;;2.08;;
71626;SDS011;59475;52.464;13.590;2023-04-25T10:54:48;6.65;;;2.10;;
71626;SDS011;59475;52.464;13.590;2023-04-25T10:57:29;10.50;;;2.33;;
71626;SDS011;59475;52.464;13.590;2023-04-25T11:00:05;6.25;;;1.73;;
71626;SDS011;59475;52.464;13.590;2023-04-25T11:02:41;6.90;;;2.22;;
71626;SDS011;59475;52.464;13.590;2023-04-25T11:05:15;9.65;;;2.30;;
71626;SDS011;59475;52.464;13.590;2023-04-25T11:07:52;9.35;;;3.13;;
71626;SDS011;59475;52.464;13.590;2023-04-25T11:10:29;5.97;;;2.07;;
71626;SDS011;59475;52.464;13.590;2023-04-25T11:12:56;9.20;;;2.20;;
71626;SDS011;59475;52.464;13.590;2023-04-25T11:15:23;6.35;;;2.28;;
71626;SDS011;59475;52.464;13.590;2023-04-25T11:17:50;8.83;;;2.00;;
71626;SDS011;59475;52.464;13.590;2023-04-25T11:20:16;10.65;;;2.58;;
71626;SDS011;59475;52.464;13.590;2023-04-25T11:22:42;5.30;;;2.05;;
71626;SDS011;59475;52.464;13.590;2023-04-25T11:25:10;9.63;;;2.63;;
71626;SDS011;59475;52.464;13.590;2023-04-25T11:27:37;6.87;;;1.80;;
71626;SDS011;59475;52.464;13.590;2023-04-25T11:30:15;7.97;;;2.20;;
71626;SDS011;59475;52.464;13.590;2023-04-25T11:32:41;8.63;;;2.10;;
71626;SDS011;59475;52.464;13.590;2023-04-25T11:35:08;8.50;;;2.13;;
71626;SDS011;59475;52.464;13.590;2023-04-25T11:37:34;7.00;;;2.20;;
71626;SDS011;59475;52.464;13.590;2023-04-25T11:40:00;4.97;;;2.13;;
71626;SDS011;59475;52.464;13.590;2023-04-25T11:42:27;9.52;;;2.22;;
71626;SDS011;59475;52.464;13.590;2023-04-25T11:44:52;6.80;;;1.70;;
71626;SDS011;59475;52.464;13.590;2023-04-25T11:47:18;5.73;;;2.00;;
71626;SDS011;59475;52.464;13.590;2023-04-25T11:49:43;11.13;;;2.30;;
71626;SDS011;59475;52.464;13.590;2023-04-25T11:52:08;6.43;;;1.60;;
71626;SDS011;59475;52.464;13.590;2023-04-25T11:54:38;8.60;;;1.67;;
71626;SDS011;59475;52.464;13.590;2023-04-25T11:57:03;5.93;;;1.73;;
71626;SDS011;59475;52.464;13.590;2023-04-25T11:59:29;7.00;;;1.70;;
71626;SDS011;59475;52.464;13.590;2023-04-25T12:01:55;4.45;;;1.90;;
71626;SDS011;59475;52.464;13.590;2023-04-25T12:04:21;5.37;;;1.73;;
71626;SDS011;59475;52.464;13.590;2023-04-25T12:06:49;7.38;;;1.60;;
71626;SDS011;59475;52.464;13.590;2023-04-25T12:09:19;7.28;;;2.33;;
71626;SDS011;59475;52.464;13.590;2023-04-25T12:11:47;4.77;;;1.63;;
71626;SDS011;59475;52.464;13.590;2023-04-25T12:14:21;3.42;;;1.35;;
71626;SDS011;59475;52.464;13.590;2023-04-25T12:16:49;9.40;;;2.10;;
71626;SDS011;59475;52.464;13.590;2023-04-25T12:19:16;5.95;;;1.75;;
71626;SDS011;59475;52.464;13.590;2023-04-25T12:21:42;6.90;;;1.83;;
71626;SDS011;59475;52.464;13.590;2023-04-25T12:26:50;4.78;;;1.63;;
71626;SDS011;59475;52.464;13.590;2023-04-25T12:29:25;9.20;;;2.13;;
71626;SDS011;59475;52.464;13.590;2023-04-25T12:31:52;7.30;;;1.73;;
71626;SDS011;59475;52.464;13.590;2023-04-25T12:34:18;4.38;;;1.65;;
71626;SDS011;59475;52.464;13.590;2023-04-25T12:36:45;5.97;;;2.50;;
71626;SDS011;59475;52.464;13.590;2023-04-25T12:39:17;5.82;;;1.63;;
71626;SDS011;59475;52.464;13.590;2023-04-25T12:41:47;8.32;;;2.40;;
71626;SDS011;59475;52.464;13.590;2023-04-25T12:44:12;5.18;;;2.00;;
71626;SDS011;59475;52.464;13.590;2023-04-25T12:46:38;5.17;;;2.53;;
71626;SDS011;59475;52.464;13.590;2023-04-25T12:49:05;3.75;;;1.40;;
71626;SDS011;59475;52.464;13.590;2023-04-25T12:51:32;6.93;;;1.83;;
71626;SDS011;59475;52.464;13.590;2023-04-25T12:54:01;4.60;;;1.50;;
71626;SDS011;59475;52.464;13.590;2023-04-25T12:56:28;5.78;;;1.42;;
71626;SDS011;59475;52.464;13.590;2023-04-25T12:58:54;9.18;;;2.17;;
71626;SDS011;59475;52.464;13.590;2023-04-25T13:01:20;4.63;;;1.87;;
71626;SDS011;59475;52.464;13.590;2023-04-25T13:03:46;5.65;;;2.03;;
71626;SDS011;59475;52.464;13.590;2023-04-25T13:06:11;8.85;;;2.78;;
71626;SDS011;59475;52.464;13.590;2023-04-25T13:08:38;4.93;;;1.60;;
71626;SDS011;59475;52.464;13.590;2023-04-25T13:11:04;7.53;;;2.03;;
71626;SDS011;59475;52.464;13.590;2023-04-25T13:13:30;5.38;;;1.40;;
71626;SDS011;59475;52.464;13.590;2023-04-25T13:15:56;7.03;;;2.72;;
71626;SDS011;59475;52.464;13.590;2023-04-25T13:18:22;3.50;;;1.20;;
71626;SDS011;59475;52.464;13.590;2023-04-25T13:20:51;5.20;;;1.75;;
71626;SDS011;59475;52.464;13.590;2023-04-25T13:23:19;3.33;;;1.92;;
71626;SDS011;59475;52.464;13.590;2023-04-25T13:25:47;5.22;;;1.42;;
71626;SDS011;59475;52.464;13.590;2023-04-25T13:28:13;3.93;;;1.90;;
71626;SDS011;59475;52.464;13.590;2023-04-25T13:30:39;3.38;;;1.73;;
71626;SDS011;59475;52.464;13.590;2023-04-25T13:33:05;2.80;;;1.13;;
71626;SDS011;59475;52.464;13.590;2023-04-25T13:35:31;6.82;;;1.52;;
71626;SDS011;59475;52.464;13.590;2023-04-25T13:37:58;4.03;;;1.40;;
71626;SDS011;59475;52.464;13.590;2023-04-25T13:40:23;4.90;;;1.60;;
71626;SDS011;59475;52.464;13.590;2023-04-25T13:42:48;2.73;;;1.40;;
71626;SDS011;59475;52.464;13.590;2023-04-25T13:45:14;6.03;;;1.40;;
71626;SDS011;59475;52.464;13.590;2023-04-25T13:47:39;4.80;;;1.55;;
71626;SDS011;59475;52.464;13.590;2023-04-25T13:50:05;4.33;;;1.40;;
71626;SDS011;59475;52.464;13.590;2023-04-25T13:52:32;4.43;;;1.40;;
71626;SDS011;59475;52.464;13.590;2023-04-25T13:54:58;6.43;;;1.53;;
71626;SDS011;59475;52.464;13.590;2023-04-25T13:57:24;6.35;;;1.63;;
71626;SDS011;59475;52.464;13.590;2023-04-25T13:59:50;5.15;;;1.58;;
71626;SDS011;59475;52.464;13.590;2023-04-25T14:02:16;2.70;;;1.53;;
71626;SDS011;59475;52.464;13.590;2023-04-25T14:04:41;7.30;;;2.00;;
71626;SDS011;59475;52.464;13.590;2023-04-25T14:07:07;6.15;;;1.83;;
71626;SDS011;59475;52.464;13.590;2023-04-25T14:09:32;5.20;;;2.00;;
71626;SDS011;59475;52.464;13.590;2023-04-25T14:11:58;3.53;;;1.60;;
71626;SDS011;59475;52.464;13.590;2023-04-25T14:14:23;4.27;;;1.60;;
71626;SDS011;59475;52.464;13.590;2023-04-25T14:16:49;5.45;;;1.67;;
71626;SDS011;59475;52.464;13.590;2023-04-25T14:19:15;5.20;;;1.60;;
71626;SDS011;59475;52.464;13.590;2023-04-25T14:21:41;9.48;;;2.08;;
71626;SDS011;59475;52.464;13.590;2023-04-25T14:24:08;4.20;;;1.90;;
71626;SDS011;59475;52.464;13.590;2023-04-25T14:26:34;4.83;;;1.80;;
71626;SDS011;59475;52.464;13.590;2023-04-25T14:29:01;3.40;;;1.48;;
71626;SDS011;59475;52.464;13.590;2023-04-25T14:31:26;7.97;;;1.97;;
71626;SDS011;59475;52.464;13.590;2023-04-25T14:33:52;6.97;;;1.90;;
71626;SDS011;59475;52.464;13.590;2023-04-25T14:36:18;3.85;;;1.77;;
71626;SDS011;59475;52.464;13.590;2023-04-25T14:38:43;2.20;;;1.70;;